Time;durP1;ratioP1;P1;durP2;ratioP2;P2;SDS_P1;SDS_P2;PMS_P1;PMS_P2;Temp;Humidity;BMP_temperature;BMP_pressure;BME280_temperature;BME280_humidity;BME280_pressure;Samples;Min_cycle;Max_cycle;Signal;HPM_P1;HPM_P2
2021/08/31 00:01:00;;;;;;;3.58;2.53;;;23.70;55.60;;;;;;5020986;28;20029;-60
2021/08/31 00:03:26;;;;;;;3.90;2.70;;;23.70;55.60;;;;;;5018749;28;20041;-57
2021/08/31 00:05:51;;;;;;;3.78;2.80;;;23.70;55.60;;;;;;5018363;28;20056;-58
2021/08/31 00:08:17;;;;;;;4.35;2.70;;;23.70;55.60;;;;;;5021392;28;20116;-60
2021/08/31 00:10:43;;;;;;;4.40;2.80;;;23.80;55.70;;;;;;5019239;28;20453;-56
2021/08/31 00:13:08;;;;;;;3.75;2.60;;;23.70;55.60;;;;;;5018353;28;20123;-55
2021/08/31 00:15:34;;;;;;;3.78;2.88;;;23.70;55.60;;;;;;5020504;28;20099;-60
2021/08/31 00:18:01;;;;;;;4.35;2.83;;;23.70;55.60;;;;;;5019333;28;20488;-61
2021/08/31 00:20:30;;;;;;;3.50;2.45;;;23.70;55.70;;;;;;5018113;28;20045;-55
2021/08/31 00:22:55;;;;;;;3.53;2.60;;;23.70;55.60;;;;;;5019793;28;20343;-53
2021/08/31 00:25:21;;;;;;;3.97;2.60;;;23.70;55.60;;;;;;5020297;28;20037;-58
2021/08/31 00:27:47;;;;;;;3.72;2.40;;;23.70;55.70;;;;;;5022101;28;20048;-58
2021/08/31 00:30:13;;;;;;;3.75;2.45;;;23.70;55.60;;;;;;5025529;28;20053;-55
2021/08/31 00:32:38;;;;;;;3.95;2.40;;;23.60;55.60;;;;;;5024017;28;20057;-57
2021/08/31 00:35:04;;;;;;;4.50;2.45;;;23.60;55.60;;;;;;5021025;28;20037;-57
2021/08/31 00:37:30;;;;;;;3.80;2.47;;;23.60;55.60;;;;;;5012309;28;20367;-55
2021/08/31 00:39:56;;;;;;;3.83;2.60;;;23.70;55.70;;;;;;5038053;28;20082;-61
2021/08/31 00:42:21;;;;;;;3.60;2.53;;;23.60;55.60;;;;;;5037717;28;20049;-55
2021/08/31 00:44:47;;;;;;;3.65;2.60;;;23.60;55.60;;;;;;5019367;28;20022;-58
2021/08/31 00:47:13;;;;;;;3.55;2.58;;;23.60;55.60;;;;;;5020185;28;20385;-53
2021/08/31 00:49:39;;;;;;;4.13;2.60;;;23.60;55.60;;;;;;5024668;28;20087;-58
2021/08/31 00:52:05;;;;;;;3.53;2.53;;;23.60;55.60;;;;;;5020951;28;20043;-58
2021/08/31 00:54:30;;;;;;;3.22;2.40;;;23.60;55.60;;;;;;5021628;28;20121;-59
2021/08/31 00:56:58;;;;;;;3.95;2.67;;;23.60;55.60;;;;;;5019821;28;20707;-55
2021/08/31 00:59:24;;;;;;;3.90;2.40;;;23.60;55.60;;;;;;5024287;28;20295;-58
2021/08/31 01:01:51;;;;;;;3.40;2.42;;;23.60;55.60;;;;;;5020631;28;20091;-53
2021/08/31 01:04:20;;;;;;;3.42;2.25;;;23.60;55.60;;;;;;5008701;28;20041;-58
2021/08/31 01:06:50;;;;;;;3.60;2.60;;;23.60;55.60;;;;;;5011854;28;20040;-56
2021/08/31 01:09:16;;;;;;;3.40;2.50;;;23.60;55.60;;;;;;5023971;28;20818;-57
2021/08/31 01:11:42;;;;;;;3.35;2.40;;;23.60;55.60;;;;;;5023499;28;20033;-60
2021/08/31 01:14:08;;;;;;;3.42;2.40;;;23.60;55.70;;;;;;5023543;28;20037;-58
2021/08/31 01:16:38;;;;;;;3.70;2.50;;;23.60;55.60;;;;;;5015872;28;20033;-60
2021/08/31 01:19:04;;;;;;;2.97;2.35;;;23.60;55.60;;;;;;5023186;28;20069;-56
2021/08/31 01:21:31;;;;;;;4.00;2.40;;;23.50;55.60;;;;;;5021841;28;20112;-59
2021/08/31 01:23:57;;;;;;;3.20;2.20;;;23.50;55.60;;;;;;5022752;28;20029;-58
2021/08/31 01:26:23;;;;;;;3.13;2.30;;;23.50;55.60;;;;;;5012798;28;20033;-55
2021/08/31 01:28:49;;;;;;;3.53;2.33;;;23.50;55.60;;;;;;5026265;28;20474;-58
2021/08/31 01:31:14;;;;;;;3.38;2.30;;;23.50;55.60;;;;;;5027141;28;20030;-59
2021/08/31 01:33:40;;;;;;;3.10;2.20;;;23.50;55.60;;;;;;5024721;28;20083;-59
2021/08/31 01:36:20;;;;;;;3.53;2.40;;;23.50;55.60;;;;;;5015705;28;20022;-58
2021/08/31 01:38:51;;;;;;;2.97;2.00;;;23.50;55.60;;;;;;5028454;28;20138;-56
2021/08/31 01:41:17;;;;;;;3.30;2.40;;;23.50;55.60;;;;;;5027699;28;20055;-58
2021/08/31 01:43:43;;;;;;;3.42;2.30;;;23.50;55.70;;;;;;5028361;28;20091;-60
2021/08/31 01:46:09;;;;;;;3.60;2.47;;;23.40;56.10;;;;;;5022552;28;20085;-61
2021/08/31 01:48:35;;;;;;;3.28;2.30;;;23.40;55.60;;;;;;5019747;28;20133;-56
2021/08/31 01:51:01;;;;;;;3.08;2.15;;;23.40;55.60;;;;;;5032145;28;20369;-57
2021/08/31 01:53:27;;;;;;;3.13;2.13;;;23.40;55.60;;;;;;5022121;28;20485;-60
2021/08/31 01:55:52;;;;;;;3.20;2.47;;;23.40;55.70;;;;;;5033945;28;20099;-60
2021/08/31 01:58:18;;;;;;;3.80;2.25;;;23.40;55.60;;;;;;5023565;28;20061;-57
2021/08/31 02:00:44;;;;;;;3.22;2.38;;;23.40;55.60;;;;;;5033231;28;20496;-58
2021/08/31 02:03:10;;;;;;;3.10;2.28;;;23.40;55.60;;;;;;5028978;28;20037;-58
2021/08/31 02:05:36;;;;;;;3.20;2.28;;;23.40;55.70;;;;;;5022063;28;20304;-51
2021/08/31 02:08:01;;;;;;;2.85;2.00;;;23.40;55.70;;;;;;5025561;28;20185;-58
2021/08/31 02:10:27;;;;;;;3.78;2.45;;;23.40;55.70;;;;;;5023309;28;20396;-58
2021/08/31 02:12:53;;;;;;;3.05;2.10;;;23.40;55.70;;;;;;5029273;28;20127;-55
2021/08/31 02:15:19;;;;;;;2.70;1.92;;;23.40;55.70;;;;;;5024999;28;20382;-61
2021/08/31 02:17:44;;;;;;;3.63;2.20;;;23.40;55.70;;;;;;5018795;28;20049;-55
2021/08/31 02:20:11;;;;;;;2.95;2.22;;;23.40;55.70;;;;;;5020296;28;20168;-60
2021/08/31 02:22:38;;;;;;;3.60;2.30;;;23.40;55.70;;;;;;5029010;28;20767;-57
2021/08/31 02:25:04;;;;;;;3.10;2.28;;;23.30;56.20;;;;;;5011809;28;20064;-54
2021/08/31 02:27:30;;;;;;;3.42;2.45;;;23.30;55.70;;;;;;5015161;28;20060;-58
2021/08/31 02:29:56;;;;;;;2.70;2.00;;;23.30;55.70;;;;;;5026179;28;20049;-49
2021/08/31 02:32:21;;;;;;;2.80;2.00;;;23.30;55.70;;;;;;5029092;28;20338;-59
2021/08/31 02:34:47;;;;;;;3.13;2.10;;;23.30;55.70;;;;;;5026441;28;20029;-60
2021/08/31 02:37:12;;;;;;;2.75;2.15;;;23.30;55.70;;;;;;5022563;28;20018;-52
2021/08/31 02:39:39;;;;;;;3.17;2.10;;;23.30;55.70;;;;;;5018363;28;20034;-58
2021/08/31 02:42:04;;;;;;;3.03;2.00;;;23.30;55.70;;;;;;5023590;28;20382;-59
2021/08/31 02:44:30;;;;;;;3.58;2.10;;;23.30;55.70;;;;;;5020990;28;20041;-58
2021/08/31 02:46:56;;;;;;;3.38;2.13;;;23.30;55.70;;;;;;5025903;28;20025;-58
2021/08/31 02:49:21;;;;;;;3.08;1.98;;;23.30;55.70;;;;;;5025716;28;20056;-56
2021/08/31 02:51:47;;;;;;;2.78;2.20;;;23.30;55.70;;;;;;5016550;28;20026;-58
2021/08/31 02:54:13;;;;;;;2.88;2.08;;;23.30;55.70;;;;;;5020316;28;20026;-61
2021/08/31 02:56:38;;;;;;;3.20;2.03;;;23.30;55.70;;;;;;5016968;28;20418;-60
2021/08/31 02:59:05;;;;;;;2.80;2.10;;;23.30;55.80;;;;;;5027812;28;20037;-58
2021/08/31 03:03:57;;;;;;;3.45;2.00;;;23.20;55.70;;;;;;5028540;28;20029;-52
2021/08/31 03:06:26;;;;;;;3.15;2.05;;;23.20;55.70;;;;;;5025008;28;20095;-58
2021/08/31 03:08:52;;;;;;;2.58;1.98;;;23.20;55.80;;;;;;5017641;28;20026;-59
2021/08/31 03:11:18;;;;;;;3.42;2.20;;;23.20;55.80;;;;;;5017102;28;20029;-61
2021/08/31 03:13:44;;;;;;;2.58;1.80;;;23.20;55.70;;;;;;5025961;28;20389;-58
2021/08/31 03:16:10;;;;;;;2.95;2.08;;;23.20;55.80;;;;;;5027779;28;20021;-57
2021/08/31 03:18:36;;;;;;;3.30;2.20;;;23.20;55.70;;;;;;5022713;28;21765;-58
2021/08/31 03:21:01;;;;;;;2.95;2.00;;;23.20;55.80;;;;;;5026641;28;20038;-58
2021/08/31 03:23:27;;;;;;;2.70;1.90;;;23.20;55.80;;;;;;5027891;28;20200;-55
2021/08/31 03:25:52;;;;;;;2.95;1.95;;;23.20;55.80;;;;;;5026420;28;20034;-52
2021/08/31 03:28:18;;;;;;;3.00;2.00;;;23.20;55.80;;;;;;5017306;28;20450;-58
2021/08/31 03:30:44;;;;;;;2.30;1.80;;;23.20;55.80;;;;;;5023956;28;20037;-57
2021/08/31 03:33:09;;;;;;;3.40;2.08;;;23.20;55.80;;;;;;5024063;28;20473;-60
2021/08/31 03:35:35;;;;;;;2.40;1.70;;;23.20;55.80;;;;;;5022546;28;20030;-54
2021/08/31 03:38:04;;;;;;;2.80;2.00;;;23.10;55.70;;;;;;5013449;28;20060;-60
2021/08/31 03:40:29;;;;;;;2.80;2.00;;;23.10;55.70;;;;;;5028636;28;20029;-51
2021/08/31 03:42:55;;;;;;;3.25;2.05;;;23.10;55.70;;;;;;5020940;28;20121;-57
2021/08/31 03:45:21;;;;;;;2.92;1.98;;;23.10;55.70;;;;;;5013849;28;20041;-55
2021/08/31 03:47:46;;;;;;;2.72;1.88;;;23.10;55.80;;;;;;5025100;28;20118;-58
2021/08/31 03:50:12;;;;;;;2.90;2.10;;;23.10;55.80;;;;;;5027022;28;20030;-57
2021/08/31 03:52:37;;;;;;;2.60;1.90;;;23.10;55.70;;;;;;5024812;28;20166;-57
2021/08/31 03:55:04;;;;;;;2.88;2.00;;;23.10;55.80;;;;;;5020005;28;20029;-58
2021/08/31 03:57:29;;;;;;;2.70;2.00;;;23.10;55.80;;;;;;5019027;28;20099;-60
2021/08/31 03:59:55;;;;;;;2.65;1.77;;;23.10;55.80;;;;;;5022112;28;20089;-55
2021/08/31 04:02:22;;;;;;;2.72;1.75;;;23.10;55.80;;;;;;5019624;28;20033;-60
2021/08/31 04:04:48;;;;;;;3.00;1.80;;;23.10;55.80;;;;;;5022049;28;22528;-51
2021/08/31 04:07:14;;;;;;;3.28;2.05;;;23.10;55.80;;;;;;5024685;28;20707;-58
2021/08/31 04:09:40;;;;;;;2.47;1.88;;;23.10;55.80;;;;;;5027329;28;20454;-60
2021/08/31 04:12:06;;;;;;;2.47;1.88;;;23.10;55.80;;;;;;5018209;28;20044;-56
2021/08/31 04:14:32;;;;;;;2.58;1.85;;;23.10;55.80;;;;;;5026548;28;20021;-53
2021/08/31 04:16:58;;;;;;;2.53;1.80;;;23.10;55.80;;;;;;5020407;28;20032;-60
2021/08/31 04:19:23;;;;;;;2.70;1.85;;;23.10;55.80;;;;;;5024812;28;20037;-60
2021/08/31 04:21:49;;;;;;;2.75;1.90;;;23.00;55.80;;;;;;5026330;28;20033;-56
2021/08/31 04:24:14;;;;;;;2.83;1.90;;;23.00;55.80;;;;;;5008329;28;20037;-58
2021/08/31 04:26:40;;;;;;;2.55;1.80;;;23.00;55.80;;;;;;5022901;28;20512;-57
2021/08/31 04:29:06;;;;;;;2.28;1.65;;;23.00;55.80;;;;;;5026237;28;20026;-59
2021/08/31 04:31:31;;;;;;;2.25;1.60;;;23.00;55.80;;;;;;5028171;28;20426;-56
2021/08/31 04:33:57;;;;;;;2.85;1.80;;;23.00;55.80;;;;;;5013265;28;20026;-61
2021/08/31 04:36:22;;;;;;;2.80;1.67;;;23.00;55.80;;;;;;5022901;28;20167;-58
2021/08/31 04:38:48;;;;;;;2.70;1.80;;;23.00;55.80;;;;;;5023084;28;20025;-58
2021/08/31 04:41:14;;;;;;;2.50;1.70;;;23.00;55.80;;;;;;5027021;28;20037;-60
2021/08/31 04:43:39;;;;;;;2.58;1.73;;;23.00;55.80;;;;;;5025378;28;20045;-57
2021/08/31 04:46:05;;;;;;;2.63;1.90;;;23.00;55.90;;;;;;5022288;28;20033;-58
2021/08/31 04:48:31;;;;;;;2.33;1.70;;;23.00;55.90;;;;;;5026760;28;20111;-58
2021/08/31 04:50:56;;;;;;;3.03;2.00;;;23.00;55.90;;;;;;5025519;28;20099;-56
2021/08/31 04:53:23;;;;;;;2.50;1.80;;;23.00;55.90;;;;;;5017572;28;20018;-57
2021/08/31 04:55:49;;;;;;;2.42;1.80;;;23.00;55.90;;;;;;5016218;28;20017;-60
2021/08/31 04:58:14;;;;;;;2.83;1.83;;;23.00;55.90;;;;;;5022240;28;20408;-58
2021/08/31 05:00:40;;;;;;;2.55;1.80;;;23.00;55.90;;;;;;5045460;28;20096;-58
2021/08/31 05:03:05;;;;;;;2.38;1.60;;;23.00;55.90;;;;;;5023736;28;20571;-56
2021/08/31 05:05:31;;;;;;;2.28;1.67;;;23.00;55.90;;;;;;5024188;28;20083;-59
2021/08/31 05:07:57;;;;;;;2.50;1.70;;;23.00;55.90;;;;;;5019226;28;20092;-58
2021/08/31 05:10:22;;;;;;;2.28;1.60;;;23.00;55.90;;;;;;5014727;28;20108;-58
2021/08/31 05:12:48;;;;;;;2.33;1.52;;;22.90;55.80;;;;;;5010457;28;20417;-60
2021/08/31 05:15:14;;;;;;;2.38;1.70;;;22.90;55.80;;;;;;5024900;28;20098;-50
2021/08/31 05:17:39;;;;;;;2.60;1.80;;;22.90;55.80;;;;;;5023348;28;20097;-58
2021/08/31 05:20:06;;;;;;;2.97;1.73;;;22.90;55.90;;;;;;5021286;28;20437;-57
2021/08/31 05:22:32;;;;;;;2.58;1.67;;;22.90;55.80;;;;;;5023244;28;20029;-55
2021/08/31 05:25:00;;;;;;;2.70;1.80;;;22.90;55.80;;;;;;5018082;28;20022;-57
2021/08/31 05:27:26;;;;;;;2.65;1.85;;;22.90;55.90;;;;;;5015380;28;20029;-56
2021/08/31 05:29:52;;;;;;;2.60;1.80;;;22.90;55.90;;;;;;5018900;28;20049;-61
2021/08/31 05:32:18;;;;;;;2.45;1.75;;;22.90;55.90;;;;;;5025061;28;20022;-56
2021/08/31 05:34:44;;;;;;;2.30;1.65;;;22.90;55.90;;;;;;5020358;28;20025;-57
2021/08/31 05:37:09;;;;;;;3.03;1.80;;;22.90;55.90;;;;;;5018802;28;20029;-55
2021/08/31 05:39:35;;;;;;;1.80;1.40;;;22.90;55.90;;;;;;5020781;28;20039;-57
2021/08/31 05:42:05;;;;;;;2.90;1.90;;;22.90;55.90;;;;;;5019897;28;20127;-57
2021/08/31 05:44:35;;;;;;;2.35;1.70;;;22.80;55.80;;;;;;5018030;28;20056;-60
2021/08/31 05:47:03;;;;;;;2.17;1.63;;;22.90;55.90;;;;;;5020975;28;20513;-55
2021/08/31 05:49:30;;;;;;;2.80;1.75;;;22.90;55.90;;;;;;5023080;28;20033;-60
2021/08/31 05:51:56;;;;;;;2.58;1.60;;;23.00;55.90;;;;;;5027701;28;20441;-58
2021/08/31 05:54:24;;;;;;;2.25;1.60;;;23.00;55.80;;;;;;5026818;28;20018;-59
2021/08/31 05:56:50;;;;;;;2.03;1.40;;;23.00;55.70;;;;;;5024316;28;20105;-58
2021/08/31 05:59:15;;;;;;;2.25;1.50;;;23.00;55.60;;;;;;5020550;28;20108;-58
2021/08/31 06:01:42;;;;;;;2.67;1.80;;;23.00;55.60;;;;;;5028513;28;20037;-58
2021/08/31 06:04:07;;;;;;;2.55;1.70;;;23.10;55.50;;;;;;5030914;28;20072;-56
2021/08/31 06:06:33;;;;;;;2.45;1.77;;;23.10;55.50;;;;;;5014482;28;20081;-58
2021/08/31 06:08:59;;;;;;;2.50;1.80;;;23.20;55.50;;;;;;5016722;28;20037;-59
2021/08/31 06:11:24;;;;;;;3.10;1.75;;;23.20;55.40;;;;;;5010798;28;20030;-57
2021/08/31 06:13:50;;;;;;;2.50;1.70;;;23.20;55.40;;;;;;5005850;28;20036;-61
2021/08/31 06:16:16;;;;;;;2.50;1.83;;;23.20;55.30;;;;;;5010547;28;20017;-59
2021/08/31 06:18:41;;;;;;;2.42;1.55;;;23.30;55.30;;;;;;5008431;28;20026;-53
2021/08/31 06:21:07;;;;;;;2.63;1.90;;;23.30;55.20;;;;;;5017541;28;20107;-55
2021/08/31 06:23:33;;;;;;;2.95;2.05;;;23.30;55.10;;;;;;5021370;28;20045;-55
2021/08/31 06:25:59;;;;;;;2.63;1.60;;;23.30;55.10;;;;;;5019078;28;20541;-58
2021/08/31 06:28:25;;;;;;;2.65;1.80;;;23.40;55.10;;;;;;5014651;28;20033;-54
2021/08/31 06:30:51;;;;;;;2.78;1.85;;;23.40;55.10;;;;;;5025955;28;20033;-56
2021/08/31 06:33:16;;;;;;;2.20;1.60;;;23.40;55.00;;;;;;5017485;28;20087;-57
2021/08/31 06:35:42;;;;;;;2.28;1.70;;;23.40;54.90;;;;;;5015933;28;21734;-61
2021/08/31 06:38:08;;;;;;;2.75;1.90;;;23.40;54.90;;;;;;5010415;28;20040;-52
2021/08/31 06:40:34;;;;;;;2.63;1.80;;;23.50;54.90;;;;;;5017986;28;20029;-61
2021/08/31 06:42:59;;;;;;;2.92;1.90;;;23.50;54.90;;;;;;5015329;28;20042;-61
2021/08/31 06:45:25;;;;;;;2.40;1.70;;;23.60;54.80;;;;;;5018986;28;20059;-56
2021/08/31 06:47:51;;;;;;;2.65;1.65;;;23.60;54.80;;;;;;5029151;28;20038;-59
2021/08/31 06:50:16;;;;;;;2.30;1.50;;;23.60;54.70;;;;;;5011281;28;20034;-59
2021/08/31 06:52:47;;;;;;;2.15;1.60;;;23.60;54.70;;;;;;5029145;28;20093;-61
2021/08/31 06:55:14;;;;;;;2.65;1.77;;;23.60;54.60;;;;;;5033702;28;20084;-61
2021/08/31 06:57:40;;;;;;;2.35;1.60;;;23.60;54.60;;;;;;5020813;28;20034;-60
2021/08/31 07:00:08;;;;;;;2.55;1.67;;;23.60;54.50;;;;;;5019735;28;20030;-55
2021/08/31 07:02:33;;;;;;;2.67;1.63;;;23.70;54.60;;;;;;5011763;28;20122;-55
2021/08/31 07:04:59;;;;;;;2.58;1.65;;;23.70;54.50;;;;;;5023205;28;20108;-61
2021/08/31 07:07:25;;;;;;;2.28;1.55;;;23.70;54.50;;;;;;5012286;28;20530;-58
2021/08/31 07:09:51;;;;;;;2.40;1.60;;;23.70;54.40;;;;;;5009958;28;20096;-59
2021/08/31 07:12:16;;;;;;;2.53;1.70;;;23.70;54.40;;;;;;5011929;28;20045;-59
2021/08/31 07:14:42;;;;;;;2.25;1.70;;;23.80;54.90;;;;;;5021425;28;20026;-61
2021/08/31 07:17:07;;;;;;;2.47;1.60;;;23.80;54.30;;;;;;5034452;28;20026;-56
2021/08/31 07:19:33;;;;;;;2.30;1.65;;;23.80;54.30;;;;;;5027792;28;20073;-57
2021/08/31 07:21:59;;;;;;;2.00;1.60;;;23.80;54.30;;;;;;5023924;28;20033;-60
2021/08/31 07:24:24;;;;;;;2.55;1.70;;;23.80;54.30;;;;;;5020046;28;20057;-60
2021/08/31 07:26:50;;;;;;;2.53;1.40;;;23.80;54.30;;;;;;5020845;28;20477;-53
2021/08/31 07:29:16;;;;;;;2.70;1.75;;;23.90;54.20;;;;;;5015275;28;20036;-58
2021/08/31 07:31:42;;;;;;;2.80;1.85;;;23.90;54.20;;;;;;5027112;28;20025;-56
2021/08/31 07:34:08;;;;;;;2.88;2.00;;;23.90;54.10;;;;;;5012269;28;20026;-58
2021/08/31 07:36:34;;;;;;;2.60;1.70;;;23.90;54.10;;;;;;5028341;28;20163;-58
2021/08/31 07:39:00;;;;;;;2.20;1.60;;;23.90;54.60;;;;;;5035077;28;20385;-56
2021/08/31 07:41:25;;;;;;;1.90;1.50;;;23.90;54.50;;;;;;5024409;28;20099;-58
2021/08/31 07:43:52;;;;;;;2.10;1.70;;;24.00;54.10;;;;;;5025544;28;20163;-55
2021/08/31 07:46:18;;;;;;;2.45;1.65;;;23.90;54.00;;;;;;5026446;28;20154;-58
2021/08/31 07:48:44;;;;;;;2.63;1.80;;;24.00;54.00;;;;;;5025891;28;20029;-58
2021/08/31 07:51:10;;;;;;;2.45;1.70;;;24.00;54.00;;;;;;5013936;28;20393;-61
2021/08/31 07:53:36;;;;;;;2.08;1.60;;;24.00;53.90;;;;;;5010013;28;20149;-53
2021/08/31 07:56:02;;;;;;;2.10;1.60;;;24.10;54.00;;;;;;5018122;28;20152;-54
2021/08/31 07:58:28;;;;;;;2.42;1.50;;;24.10;53.90;;;;;;5019949;28;20148;-58
2021/08/31 08:00:53;;;;;;;2.47;1.73;;;24.10;53.90;;;;;;5023205;28;20124;-60
2021/08/31 08:03:19;;;;;;;2.33;1.70;;;24.10;53.90;;;;;;5023536;28;20044;-60
2021/08/31 08:05:45;;;;;;;2.33;1.63;;;24.10;53.90;;;;;;5027114;28;20461;-58
2021/08/31 08:08:10;;;;;;;2.35;1.40;;;24.10;53.90;;;;;;5016501;28;20052;-54
2021/08/31 08:10:36;;;;;;;2.22;1.50;;;24.10;53.80;;;;;;5021199;28;20432;-57
2021/08/31 08:13:01;;;;;;;2.33;1.70;;;24.10;53.80;;;;;;5020066;28;20045;-57
2021/08/31 08:15:27;;;;;;;2.13;1.45;;;24.10;53.80;;;;;;5016345;28;20033;-57
2021/08/31 08:17:53;;;;;;;2.28;1.70;;;24.10;53.80;;;;;;5031347;28;20440;-57
2021/08/31 08:20:18;;;;;;;2.50;1.63;;;24.20;53.80;;;;;;5020389;28;20029;-59
2021/08/31 08:22:44;;;;;;;2.15;1.58;;;24.20;53.80;;;;;;5020025;28;20100;-57
2021/08/31 08:25:11;;;;;;;2.30;1.58;;;24.20;53.70;;;;;;5015615;28;20025;-61
2021/08/31 08:27:37;;;;;;;2.00;1.40;;;24.20;53.80;;;;;;5033068;28;20492;-59
2021/08/31 08:30:04;;;;;;;2.72;1.70;;;24.20;53.80;;;;;;5019628;28;20034;-59
2021/08/31 08:32:29;;;;;;;2.10;1.40;;;24.30;53.80;;;;;;5016506;28;20021;-60
2021/08/31 08:34:55;;;;;;;2.42;1.65;;;24.30;53.70;;;;;;5023651;28;20540;-61
2021/08/31 08:37:20;;;;;;;2.42;1.70;;;24.30;53.70;;;;;;5016844;28;20029;-59
2021/08/31 08:39:46;;;;;;;2.17;1.50;;;24.30;53.70;;;;;;5020135;28;20076;-60
2021/08/31 08:42:13;;;;;;;2.05;1.52;;;24.30;53.60;;;;;;5025634;28;20100;-59
2021/08/31 08:44:39;;;;;;;2.45;1.50;;;24.30;53.60;;;;;;5015986;28;20505;-59
2021/08/31 08:47:04;;;;;;;1.70;1.30;;;24.30;53.60;;;;;;5022668;28;20052;-59
2021/08/31 08:49:30;;;;;;;2.20;1.60;;;24.30;53.60;;;;;;5021960;28;20033;-55
2021/08/31 08:51:58;;;;;;;2.10;1.38;;;24.30;53.50;;;;;;5008040;28;20139;-59
2021/08/31 08:54:25;;;;;;;2.05;1.40;;;24.40;53.60;;;;;;5008271;28;20030;-57
2021/08/31 08:56:52;;;;;;;2.05;1.40;;;24.40;53.60;;;;;;5012489;28;20978;-61
2021/08/31 08:59:19;;;;;;;1.80;1.40;;;24.40;53.60;;;;;;5013800;28;20042;-59
2021/08/31 09:01:48;;;;;;;2.42;1.70;;;24.40;53.60;;;;;;5008496;28;20033;-59
2021/08/31 09:04:16;;;;;;;2.10;1.50;;;24.40;53.50;;;;;;5009886;28;20080;-59
2021/08/31 09:06:45;;;;;;;2.17;1.33;;;24.40;53.50;;;;;;5028211;28;20576;-59
2021/08/31 09:09:12;;;;;;;2.33;1.50;;;24.50;53.50;;;;;;5024276;28;20116;-55
2021/08/31 09:11:40;;;;;;;2.08;1.40;;;24.40;53.50;;;;;;5020747;28;20032;-61
2021/08/31 09:14:27;;;;;;;2.13;1.60;;;24.50;53.50;;;;;;5007377;28;20109;-59
2021/08/31 09:17:04;;;;;;;2.78;1.52;;;24.50;53.40;;;;;;5021829;28;20078;-57
2021/08/31 09:19:38;;;;;;;2.13;1.45;;;24.50;53.40;;;;;;5024149;28;20056;-61
2021/08/31 09:22:24;;;;;;;1.70;1.30;;;24.50;53.40;;;;;;5012353;28;20065;-59
2021/08/31 09:25:09;;;;;;;2.03;1.45;;;24.50;53.40;;;;;;5011420;28;20048;-59
2021/08/31 09:27:37;;;;;;;2.03;1.40;;;24.50;53.40;;;;;;5020395;28;20128;-60
2021/08/31 09:30:21;;;;;;;1.75;1.30;;;24.50;53.30;;;;;;5030776;28;20070;-60
2021/08/31 09:33:09;;;;;;;1.90;1.40;;;24.50;53.30;;;;;;5015785;28;20037;-59
2021/08/31 09:35:35;;;;;;;2.30;1.50;;;24.50;53.30;;;;;;5019868;28;20037;-60
2021/08/31 09:38:06;;;;;;;2.00;1.30;;;24.60;53.30;;;;;;5007993;28;20033;-60
2021/08/31 09:40:37;;;;;;;2.20;1.50;;;24.50;53.20;;;;;;5025823;28;20033;-58
2021/08/31 09:43:06;;;;;;;2.13;1.48;;;24.60;53.30;;;;;;5024836;28;20069;-60
2021/08/31 09:45:38;;;;;;;2.08;1.40;;;24.60;53.30;;;;;;5014796;28;20095;-56
2021/08/31 09:48:06;;;;;;;2.13;1.40;;;24.60;53.30;;;;;;5026044;28;20063;-55
2021/08/31 09:50:38;;;;;;;2.03;1.47;;;24.60;53.30;;;;;;5017268;28;20156;-58
2021/08/31 09:53:15;;;;;;;1.95;1.42;;;24.60;53.30;;;;;;5028784;28;20038;-59
2021/08/31 09:55:43;;;;;;;1.88;1.30;;;24.60;53.30;;;;;;5008245;28;20026;-59
2021/08/31 09:58:25;;;;;;;2.05;1.40;;;24.60;53.30;;;;;;5025740;28;20028;-54
2021/08/31 10:00:53;;;;;;;2.00;1.30;;;24.70;53.30;;;;;;5044071;28;20166;-61
2021/08/31 10:03:19;;;;;;;2.20;1.40;;;24.70;53.30;;;;;;5019653;28;20018;-59
2021/08/31 10:05:46;;;;;;;1.90;1.45;;;24.70;53.30;;;;;;5011180;28;20026;-61
2021/08/31 10:08:14;;;;;;;2.03;1.50;;;24.60;53.20;;;;;;5021384;28;20047;-61
2021/08/31 10:10:40;;;;;;;2.05;1.35;;;24.70;53.30;;;;;;5019298;28;20180;-59
2021/08/31 10:13:15;;;;;;;1.67;1.30;;;24.70;53.20;;;;;;5005926;28;20042;-57
2021/08/31 10:15:46;;;;;;;2.00;1.40;;;24.70;53.20;;;;;;5013101;28;20040;-60
2021/08/31 10:18:14;;;;;;;1.73;1.23;;;24.70;53.20;;;;;;5021453;28;20093;-58
2021/08/31 10:20:46;;;;;;;1.90;1.40;;;24.70;53.20;;;;;;5018274;28;20037;-58
2021/08/31 10:23:14;;;;;;;2.10;1.40;;;24.70;53.20;;;;;;5026722;28;20044;-58
2021/08/31 10:25:40;;;;;;;2.10;1.50;;;24.80;53.30;;;;;;5026783;28;20517;-58
2021/08/31 10:28:22;;;;;;;2.53;1.70;;;24.80;53.20;;;;;;5029397;28;20048;-59
2021/08/31 10:30:48;;;;;;;2.13;1.50;;;24.80;53.20;;;;;;5022826;28;20022;-56
2021/08/31 10:33:40;;;;;;;1.83;1.23;;;24.80;53.20;;;;;;5011230;28;20787;-59
2021/08/31 10:36:08;;;;;;;2.05;1.50;;;24.80;53.20;;;;;;5029124;28;20040;-58
2021/08/31 10:38:50;;;;;;;2.15;1.45;;;24.80;53.20;;;;;;5028812;28;20091;-58
2021/08/31 10:41:47;;;;;;;2.38;1.75;;;24.80;53.20;;;;;;5023648;28;20034;-58
2021/08/31 10:44:34;;;;;;;1.95;1.40;;;24.80;53.20;;;;;;5010455;28;20061;-57
2021/08/31 10:47:24;;;;;;;1.90;1.38;;;24.80;53.20;;;;;;5019982;28;20450;-60
2021/08/31 10:49:58;;;;;;;2.33;1.45;;;24.80;53.20;;;;;;5018064;28;20052;-60
2021/08/31 10:52:35;;;;;;;1.88;1.40;;;24.80;53.20;;;;;;5027397;28;20030;-58
2021/08/31 10:55:02;;;;;;;2.00;1.42;;;24.80;53.20;;;;;;5025674;28;20340;-59
2021/08/31 10:57:37;;;;;;;2.15;1.50;;;24.80;53.20;;;;;;5024849;28;20041;-57
2021/08/31 11:00:14;;;;;;;1.80;1.33;;;24.90;53.20;;;;;;5028704;28;20327;-59
2021/08/31 11:02:46;;;;;;;2.50;1.40;;;24.90;53.20;;;;;;5029095;28;20021;-57
2021/08/31 11:05:20;;;;;;;2.45;1.60;;;24.90;53.20;;;;;;5022518;28;20037;-52
2021/08/31 11:07:48;;;;;;;2.13;1.50;;;24.90;53.20;;;;;;5023787;28;20021;-57
2021/08/31 11:10:29;;;;;;;1.95;1.30;;;24.90;53.20;;;;;;5024036;28;20033;-58
2021/08/31 11:12:57;;;;;;;2.35;1.45;;;24.90;53.20;;;;;;5027015;28;20072;-57
2021/08/31 11:15:27;;;;;;;1.73;1.30;;;24.90;53.20;;;;;;5024345;28;20322;-59
2021/08/31 11:17:54;;;;;;;2.10;1.40;;;24.90;53.20;;;;;;5012746;28;20466;-59
2021/08/31 11:20:26;;;;;;;1.75;1.30;;;24.90;53.10;;;;;;5023804;28;20026;-58
2021/08/31 11:23:18;;;;;;;1.92;1.50;;;24.90;53.10;;;;;;5017483;28;20034;-59
2021/08/31 11:25:54;;;;;;;1.73;1.23;;;24.90;53.20;;;;;;5001331;28;20053;-56
2021/08/31 11:28:26;;;;;;;2.22;1.60;;;25.00;53.30;;;;;;5026375;28;20433;-60
2021/08/31 11:30:52;;;;;;;1.90;1.50;;;24.90;53.20;;;;;;5027446;28;20136;-54
2021/08/31 11:33:28;;;;;;;1.88;1.33;;;25.00;53.20;;;;;;5021605;28;20076;-56
2021/08/31 11:36:02;;;;;;;2.00;1.35;;;25.00;53.20;;;;;;5044237;28;20027;-58
2021/08/31 11:38:42;;;;;;;1.88;1.30;;;25.00;53.20;;;;;;5027329;28;20259;-59
2021/08/31 11:41:30;;;;;;;1.95;1.40;;;25.00;53.10;;;;;;5008951;28;20088;-55
2021/08/31 11:44:09;;;;;;;2.17;1.37;;;25.10;53.20;;;;;;5026215;28;20123;-60
2021/08/31 11:46:41;;;;;;;2.38;1.45;;;25.00;53.00;;;;;;5026354;28;20371;-57
2021/08/31 11:49:29;;;;;;;2.28;1.70;;;25.10;53.10;;;;;;5010905;28;20042;-58
2021/08/31 11:51:55;;;;;;;2.30;1.50;;;25.10;53.10;;;;;;5008726;28;20036;-60
2021/08/31 11:54:22;;;;;;;1.77;1.40;;;25.10;53.00;;;;;;5012117;28;20018;-59
2021/08/31 11:56:54;;;;;;;2.10;1.60;;;25.10;53.00;;;;;;5020109;28;20129;-60
2021/08/31 11:59:38;;;;;;;1.95;1.40;;;25.10;53.00;;;;;;5019882;28;20151;-55
2021/08/31 12:02:15;;;;;;;2.15;1.50;;;25.10;53.00;;;;;;5041379;28;20064;-59
2021/08/31 12:05:02;;;;;;;1.90;1.40;;;25.10;53.00;;;;;;5011373;28;20056;-58
2021/08/31 12:07:34;;;;;;;1.80;1.42;;;25.10;53.00;;;;;;5028407;28;20045;-58
2021/08/31 12:10:03;;;;;;;2.00;1.40;;;25.10;52.90;;;;;;5031310;28;20529;-59
2021/08/31 12:12:29;;;;;;;2.50;1.50;;;25.10;53.00;;;;;;5023452;28;20477;-54
2021/08/31 12:14:56;;;;;;;2.60;1.25;;;25.10;52.90;;;;;;5040461;28;20076;-59
2021/08/31 12:17:57;;;;;;;2.08;1.40;;;25.10;52.90;;;;;;5022051;28;20374;-58
2021/08/31 12:20:24;;;;;;;2.08;1.50;;;25.10;52.90;;;;;;5022051;28;20121;-59
2021/08/31 12:22:55;;;;;;;2.08;1.48;;;25.10;52.90;;;;;;5021689;28;20615;-58
2021/08/31 12:25:20;;;;;;;1.88;1.38;;;25.20;52.90;;;;;;5035700;28;20033;-60
2021/08/31 12:27:52;;;;;;;1.60;1.20;;;25.10;52.80;;;;;;5035717;28;20588;-58
2021/08/31 12:30:45;;;;;;;1.85;1.20;;;25.20;52.90;;;;;;5025381;28;20025;-56
2021/08/31 12:33:13;;;;;;;2.20;1.40;;;25.20;52.90;;;;;;5015805;28;20045;-56
2021/08/31 12:35:46;;;;;;;2.10;1.30;;;25.20;52.90;;;;;;5024744;28;20020;-56
2021/08/31 12:38:24;;;;;;;1.45;1.08;;;25.20;52.90;;;;;;5016936;28;20033;-57
2021/08/31 12:40:50;;;;;;;2.00;1.38;;;25.20;53.00;;;;;;5012817;28;20067;-54
2021/08/31 12:43:16;;;;;;;2.47;1.45;;;25.20;52.90;;;;;;5020461;28;20053;-59
2021/08/31 12:45:51;;;;;;;2.00;1.30;;;25.20;52.90;;;;;;5022739;28;20141;-56
2021/08/31 12:48:17;;;;;;;1.52;1.10;;;25.20;52.90;;;;;;5023513;28;20060;-58
2021/08/31 12:50:54;;;;;;;1.77;1.20;;;25.20;52.90;;;;;;5018329;28;20025;-58
2021/08/31 12:53:33;;;;;;;1.65;1.10;;;25.20;53.00;;;;;;5010266;28;20025;-57
2021/08/31 12:56:05;;;;;;;1.70;1.30;;;25.30;53.00;;;;;;5016823;28;20119;-54